createdAt,value
2023-03-14T00:01:15.324Z,-4.01
2023-03-14T00:03:47.202Z,-4.01
2023-03-14T00:06:14.828Z,-4.00
2023-03-14T00:08:43.372Z,-4.00
2023-03-14T00:11:14.061Z,-4.00
2023-03-14T00:13:42.370Z,-3.98
2023-03-14T00:16:12.817Z,-3.97
2023-03-14T00:18:42.826Z,-3.96
2023-03-14T00:21:11.631Z,-3.95
2023-03-14T00:23:46.774Z,-3.95
2023-03-14T00:26:16.463Z,-3.96
2023-03-14T00:28:44.261Z,-3.96
2023-03-14T00:31:16.454Z,-3.97
2023-03-14T00:33:45.264Z,-3.97
2023-03-14T00:36:17.784Z,-3.97
2023-03-14T00:38:49.354Z,-3.97
2023-03-14T00:41:25.170Z,-3.96
2023-03-14T00:43:52.632Z,-3.93
2023-03-14T00:46:20.654Z,-3.93
2023-03-14T00:48:48.386Z,-3.95
2023-03-14T00:51:16.924Z,-3.97
2023-03-14T00:53:46.948Z,-3.98
2023-03-14T00:56:14.603Z,-3.98
2023-03-14T00:58:41.563Z,-3.99
2023-03-14T01:01:12.690Z,-3.98
2023-03-14T01:03:40.157Z,-3.98
2023-03-14T01:06:16.275Z,-3.96
2023-03-14T01:08:44.632Z,-3.95
2023-03-14T01:11:15.632Z,-3.93
2023-03-14T01:13:44.947Z,-3.91
2023-03-14T01:16:13.780Z,-3.88
2023-03-14T01:18:44.848Z,-3.85
2023-03-14T01:21:14.163Z,-3.83
2023-03-14T01:23:42.941Z,-3.83
2023-03-14T01:26:19.630Z,-3.83
2023-03-14T01:28:48.952Z,-3.84
2023-03-14T01:31:16.619Z,-3.86
2023-03-14T01:33:43.948Z,-3.87
2023-03-14T01:36:12.260Z,-3.90
2023-03-14T01:38:43.035Z,-3.93
2023-03-14T01:41:17.434Z,-3.95
2023-03-14T01:43:45.120Z,-3.96
2023-03-14T01:46:28.732Z,-3.97
2023-03-14T01:49:28.188Z,-3.97
2023-03-14T01:52:22.397Z,-3.94
2023-03-14T01:55:12.551Z,-3.89
2023-03-14T01:57:51.601Z,-3.84
2023-03-14T02:00:23.738Z,-3.80
2023-03-14T02:02:59.129Z,-3.76
2023-03-14T02:05:30.826Z,-3.71
2023-03-14T02:08:04.391Z,-3.67
2023-03-14T02:10:44.635Z,-3.63
2023-03-14T02:13:13.478Z,-3.60
2023-03-14T02:15:48.999Z,-3.59
2023-03-14T02:18:51.989Z,-3.56
2023-03-14T02:21:59.298Z,-3.55
2023-03-14T02:24:51.646Z,-3.54
2023-03-14T02:27:38.871Z,-3.52
2023-03-14T02:30:14.486Z,-3.51
2023-03-14T02:32:47.013Z,-3.50
2023-03-14T02:35:23.007Z,-3.49
2023-03-14T02:38:22.821Z,-3.47
2023-03-14T02:40:55.356Z,-3.47
2023-03-14T02:43:24.376Z,-3.48
2023-03-14T02:45:56.315Z,-3.48
2023-03-14T02:48:32.085Z,-3.49
2023-03-14T02:51:00.724Z,-3.50
2023-03-14T02:53:32.223Z,-3.51
2023-03-14T02:56:02.500Z,-3.52
2023-03-14T02:58:31.190Z,-3.53
2023-03-14T03:01:05.734Z,-3.55
2023-03-14T03:03:37.739Z,-3.55
2023-03-14T03:06:05.620Z,-3.55
2023-03-14T03:08:32.821Z,-3.55
2023-03-14T03:11:00.389Z,-3.56
2023-03-14T03:13:30.208Z,-3.56
2023-03-14T03:15:57.405Z,-3.55
2023-03-14T03:18:26.190Z,-3.55
2023-03-14T03:20:53.359Z,-3.55
2023-03-14T03:23:23.273Z,-3.54
2023-03-14T03:25:51.878Z,-3.54
2023-03-14T03:28:20.111Z,-3.54
2023-03-14T03:30:47.508Z,-3.54
2023-03-14T03:33:15.061Z,-3.56
2023-03-14T03:35:46.614Z,-3.58
2023-03-14T03:38:15.030Z,-3.59
2023-03-14T03:40:43.046Z,-3.61
2023-03-14T03:43:12.233Z,-3.63
2023-03-14T03:45:40.764Z,-3.64
2023-03-14T03:48:10.864Z,-3.63
2023-03-14T03:50:44.064Z,-3.64
2023-03-14T03:53:15.606Z,-3.62
2023-03-14T03:55:45.429Z,-3.61
2023-03-14T03:58:12.491Z,-3.61
2023-03-14T04:00:41.115Z,-3.60
2023-03-14T04:03:08.417Z,-3.59
2023-03-14T04:05:35.678Z,-3.59
2023-03-14T04:08:08.320Z,-3.59
2023-03-14T04:10:36.392Z,-3.59
2023-03-14T04:13:19.143Z,-3.59
2023-03-14T04:15:51.404Z,-3.58
2023-03-14T04:18:25.246Z,-3.56
2023-03-14T04:20:58.073Z,-3.53
2023-03-14T04:23:32.112Z,-3.48
2023-03-14T04:26:00.225Z,-3.41
2023-03-14T04:28:27.764Z,-3.33
2023-03-14T04:30:55.828Z,-3.25
2023-03-14T04:33:26.105Z,-3.17
2023-03-14T04:35:55.728Z,-3.07
2023-03-14T04:38:23.084Z,-2.97
2023-03-14T04:40:51.073Z,-2.87
2023-03-14T04:43:19.882Z,-2.76
2023-03-14T04:45:51.638Z,-2.65
2023-03-14T04:48:20.232Z,-2.56
2023-03-14T04:50:48.020Z,-2.46
2023-03-14T04:53:17.537Z,-2.36
2023-03-14T04:55:54.068Z,-2.25
2023-03-14T04:58:23.885Z,-2.13
2023-03-14T05:00:52.034Z,-2.01
2023-03-14T05:03:36.587Z,-1.87
2023-03-14T05:06:26.913Z,-1.72
2023-03-14T05:09:05.633Z,-1.58
2023-03-14T05:11:45.328Z,-1.42
2023-03-14T05:14:30.833Z,-1.26
2023-03-14T05:17:14.928Z,-1.09
2023-03-14T05:20:13.414Z,-0.91
2023-03-14T05:22:58.528Z,-0.73
2023-03-14T05:25:45.743Z,-0.54
2023-03-14T05:28:25.374Z,-0.39
2023-03-14T05:31:08.427Z,-0.24
2023-03-14T05:33:47.781Z,-0.10
2023-03-14T05:36:33.206Z,0.05
2023-03-14T05:39:11.270Z,0.20
2023-03-14T05:41:56.430Z,0.37
2023-03-14T05:44:23.797Z,0.53
2023-03-14T05:47:09.802Z,0.72
2023-03-14T05:49:56.059Z,0.93
2023-03-14T05:52:35.965Z,1.13
2023-03-14T05:55:19.491Z,1.36
2023-03-14T05:57:56.866Z,1.57
2023-03-14T06:00:24.326Z,1.76
2023-03-14T06:03:17.882Z,1.97
2023-03-14T06:05:44.974Z,2.13
2023-03-14T06:08:17.795Z,2.29
2023-03-14T06:10:47.261Z,2.44
2023-03-14T06:13:15.822Z,2.58
2023-03-14T06:15:44.404Z,2.71
2023-03-14T06:18:21.750Z,2.85
2023-03-14T06:20:49.384Z,2.95
2023-03-14T06:23:23.444Z,3.07
2023-03-14T06:25:51.436Z,3.21
2023-03-14T06:28:19.222Z,3.34
2023-03-14T06:30:47.752Z,3.47
2023-03-14T06:33:15.735Z,3.62
2023-03-14T06:35:43.424Z,3.78
2023-03-14T06:38:10.548Z,3.95
2023-03-14T06:40:37.837Z,4.15
2023-03-14T06:43:13.174Z,4.32
2023-03-14T06:45:41.819Z,4.50
2023-03-14T06:48:14.479Z,4.67
2023-03-14T06:50:52.284Z,4.83
2023-03-14T06:53:19.526Z,4.97
2023-03-14T06:55:47.340Z,5.12
2023-03-14T06:58:15.411Z,5.26
2023-03-14T07:00:44.009Z,5.41
2023-03-14T07:03:14.640Z,5.54
2023-03-14T07:05:46.390Z,5.67
2023-03-14T07:08:13.507Z,5.84
2023-03-14T07:10:40.412Z,5.99
2023-03-14T07:13:13.645Z,6.12
2023-03-14T07:15:55.178Z,6.22
2023-03-14T07:18:22.193Z,6.33
2023-03-14T07:20:53.310Z,6.45
2023-03-14T07:23:20.941Z,6.58
2023-03-14T07:25:51.300Z,6.76
2023-03-14T07:28:19.587Z,6.90
2023-03-14T07:30:48.252Z,6.99
2023-03-14T07:33:23.385Z,7.07
2023-03-14T07:35:51.682Z,7.18
2023-03-14T07:38:19.845Z,7.28
2023-03-14T07:41:17.696Z,7.39
2023-03-14T07:43:50.457Z,7.48
2023-03-14T07:46:20.409Z,7.58
2023-03-14T07:48:48.343Z,7.72
2023-03-14T07:51:17.969Z,7.81
2023-03-14T07:53:47.955Z,7.86
2023-03-14T07:56:14.854Z,7.89
2023-03-14T07:58:42.811Z,7.91
2023-03-14T08:01:10.365Z,7.97
2023-03-14T08:03:39.590Z,8.05
2023-03-14T08:06:07.235Z,8.11
2023-03-14T08:08:34.355Z,8.17
2023-03-14T08:11:11.004Z,8.26
2023-03-14T08:13:41.885Z,8.41
2023-03-14T08:16:09.282Z,8.52
2023-03-14T08:18:38.327Z,8.60
2023-03-14T08:21:05.589Z,8.67
2023-03-14T08:23:36.194Z,8.73
2023-03-14T08:26:03.673Z,8.77
2023-03-14T08:28:32.994Z,8.75
2023-03-14T08:31:01.925Z,8.77
2023-03-14T08:33:29.902Z,8.80
2023-03-14T08:35:59.284Z,8.86
2023-03-14T08:38:26.736Z,8.90
2023-03-14T08:40:58.878Z,8.92
2023-03-14T08:43:26.887Z,8.94
2023-03-14T08:45:57.651Z,9.03
2023-03-14T08:48:24.718Z,9.14
2023-03-14T08:50:52.177Z,9.20
2023-03-14T08:53:21.473Z,9.23
2023-03-14T08:55:54.758Z,9.26
2023-03-14T08:58:24.193Z,9.28
2023-03-14T09:00:51.182Z,9.30
2023-03-14T09:03:18.394Z,9.36
2023-03-14T09:05:45.530Z,9.41
2023-03-14T09:08:13.334Z,9.44
2023-03-14T09:10:41.595Z,9.44
2023-03-14T09:13:08.571Z,9.45
2023-03-14T09:15:36.816Z,9.47
2023-03-14T09:18:04.217Z,9.49
2023-03-14T09:20:31.265Z,9.54
2023-03-14T09:22:58.297Z,9.58
2023-03-14T09:25:26.099Z,9.59
2023-03-14T09:27:55.214Z,9.56
2023-03-14T09:30:22.399Z,9.52
2023-03-14T09:32:49.773Z,9.51
2023-03-14T09:35:17.778Z,9.54
2023-03-14T09:37:44.939Z,9.59
2023-03-14T09:40:20.516Z,9.63
2023-03-14T09:42:52.187Z,9.71
2023-03-14T09:45:40.972Z,9.70
2023-03-14T09:48:17.704Z,9.67
2023-03-14T09:50:51.045Z,9.69
2023-03-14T09:53:25.474Z,9.69
2023-03-14T09:55:56.673Z,9.70
2023-03-14T09:58:31.877Z,9.72
2023-03-14T10:01:02.974Z,9.73
2023-03-14T10:03:35.328Z,9.76
2023-03-14T10:06:13.076Z,9.83
2023-03-14T10:08:46.517Z,9.89
2023-03-14T10:11:18.044Z,9.94
2023-03-14T10:14:02.571Z,10.02
2023-03-14T10:16:33.520Z,10.07
2023-03-14T10:19:15.391Z,10.09
2023-03-14T10:21:45.888Z,10.11
2023-03-14T10:24:26.742Z,10.10
2023-03-14T10:27:04.558Z,10.10
2023-03-14T10:29:35.334Z,10.08
2023-03-14T10:32:05.012Z,10.09
2023-03-14T10:34:37.211Z,10.12
2023-03-14T10:37:22.164Z,10.14
2023-03-14T10:39:55.784Z,10.16
2023-03-14T10:42:26.205Z,10.20
2023-03-14T10:45:00.455Z,10.24
2023-03-14T10:47:29.056Z,10.29
2023-03-14T10:49:57.820Z,10.30
2023-03-14T10:52:45.660Z,10.32
2023-03-14T10:55:17.484Z,10.35
2023-03-14T10:57:45.404Z,10.37
2023-03-14T11:00:20.532Z,10.35
2023-03-14T11:03:06.524Z,10.36
2023-03-14T11:05:54.268Z,10.38
2023-03-14T11:08:30.603Z,10.37
2023-03-14T11:11:25.853Z,10.32
2023-03-14T11:14:14.806Z,10.32
2023-03-14T11:17:02.724Z,10.36
2023-03-14T11:19:44.136Z,10.41
2023-03-14T11:22:22.678Z,10.44
2023-03-14T11:25:08.435Z,10.46
2023-03-14T11:27:48.903Z,10.48
2023-03-14T11:31:14.784Z,10.47
2023-03-14T11:33:56.578Z,10.47
2023-03-14T11:36:40.354Z,10.51
2023-03-14T11:39:18.718Z,10.54
2023-03-14T11:41:54.447Z,10.60
2023-03-14T11:44:48.972Z,10.63
2023-03-14T11:47:31.041Z,10.67
2023-03-14T11:50:01.681Z,10.66
2023-03-14T11:52:43.324Z,10.66
2023-03-14T11:55:34.982Z,10.69
2023-03-14T11:58:26.345Z,10.68
2023-03-14T12:00:55.645Z,10.63
2023-03-14T12:04:04.760Z,10.59
2023-03-14T12:06:48.903Z,10.60
2023-03-14T12:09:18.841Z,10.60
2023-03-14T12:11:49.018Z,10.58
2023-03-14T12:14:28.045Z,10.55
2023-03-14T12:17:05.210Z,10.50
2023-03-14T12:19:38.298Z,10.50
2023-03-14T12:22:19.372Z,10.53
2023-03-14T12:24:51.996Z,10.56
2023-03-14T12:27:44.757Z,10.53
2023-03-14T12:30:26.132Z,10.51
2023-03-14T12:33:17.842Z,10.49
2023-03-14T12:35:50.938Z,10.50
2023-03-14T12:38:32.540Z,10.51
2023-03-14T12:41:22.059Z,10.50
2023-03-14T12:43:49.607Z,10.47
2023-03-14T12:46:27.906Z,10.45
2023-03-14T12:49:08.638Z,10.44
2023-03-14T12:51:44.606Z,10.42
2023-03-14T12:54:18.131Z,10.39
2023-03-14T12:56:59.455Z,10.39
2023-03-14T12:59:38.411Z,10.40
2023-03-14T13:02:09.199Z,10.39
2023-03-14T13:04:49.833Z,10.36
2023-03-14T13:07:32.823Z,10.36
2023-03-14T13:10:05.675Z,10.37
2023-03-14T13:12:39.002Z,10.34
2023-03-14T13:15:40.125Z,10.29
2023-03-14T13:18:13.919Z,10.29
2023-03-14T13:20:53.836Z,10.29
2023-03-14T13:23:30.040Z,10.29
2023-03-14T13:26:00.585Z,10.29
2023-03-14T13:28:30.182Z,10.26
2023-03-14T13:31:02.711Z,10.23
2023-03-14T13:33:30.032Z,10.18
2023-03-14T13:36:05.211Z,10.13
2023-03-14T13:38:36.563Z,10.11
2023-03-14T13:41:07.178Z,10.09
2023-03-14T13:43:44.001Z,10.05
2023-03-14T13:46:16.959Z,10.02
2023-03-14T13:48:58.780Z,9.97
2023-03-14T13:51:36.386Z,9.94
2023-03-14T13:54:06.167Z,9.92
2023-03-14T13:56:33.770Z,9.91
2023-03-14T13:59:00.791Z,9.88
2023-03-14T14:01:38.644Z,9.86
2023-03-14T14:04:09.658Z,9.83
2023-03-14T14:06:48.971Z,9.80
2023-03-14T14:09:23.870Z,9.78
2023-03-14T14:12:11.292Z,9.75
2023-03-14T14:14:55.953Z,9.71
2023-03-14T14:17:36.890Z,9.66
2023-03-14T14:20:22.196Z,9.61
2023-03-14T14:22:51.138Z,9.56
2023-03-14T14:25:18.337Z,9.53
2023-03-14T14:27:50.699Z,9.50
2023-03-14T14:30:18.068Z,9.46
2023-03-14T14:32:48.369Z,9.42
2023-03-14T14:35:42.737Z,9.37
2023-03-14T14:38:16.587Z,9.32
2023-03-14T14:40:46.148Z,9.26
2023-03-14T14:43:19.335Z,9.21
2023-03-14T14:45:50.076Z,9.15
2023-03-14T14:48:23.027Z,9.10
2023-03-14T14:50:57.219Z,9.04
2023-03-14T14:53:27.605Z,8.98
2023-03-14T14:55:57.699Z,8.93
2023-03-14T14:58:35.504Z,8.87
2023-03-14T15:01:12.544Z,8.83
2023-03-14T15:03:50.279Z,8.78
2023-03-14T15:06:18.107Z,8.74
2023-03-14T15:08:48.072Z,8.69
2023-03-14T15:11:21.097Z,8.64
2023-03-14T15:13:48.901Z,8.57
2023-03-14T15:16:22.141Z,8.52
2023-03-14T15:21:49.407Z,8.36
2023-03-14T15:24:16.857Z,8.29
2023-03-14T15:26:45.292Z,8.22
2023-03-14T15:29:13.003Z,8.16
2023-03-14T15:31:59.896Z,8.07
2023-03-14T15:34:33.251Z,7.98
2023-03-14T15:37:00.200Z,7.90
2023-03-14T15:39:27.157Z,7.84
2023-03-14T15:41:54.093Z,7.77
2023-03-14T15:44:21.413Z,7.69
2023-03-14T15:46:48.917Z,7.63
2023-03-14T15:49:15.810Z,7.57
2023-03-14T15:51:45.554Z,7.50
2023-03-14T15:54:13.671Z,7.44
2023-03-14T15:56:40.689Z,7.39
2023-03-14T15:59:08.201Z,7.32
2023-03-14T16:01:35.143Z,7.26
2023-03-14T16:04:02.957Z,7.20
2023-03-14T16:06:35.815Z,7.14
2023-03-14T16:09:04.751Z,7.05
2023-03-14T16:11:32.188Z,6.99
2023-03-14T16:13:59.836Z,6.92
2023-03-14T16:16:26.923Z,6.85
2023-03-14T16:18:56.510Z,6.79
2023-03-14T16:21:23.898Z,6.73
2023-03-14T16:23:50.932Z,6.68
2023-03-14T16:26:20.462Z,6.63
2023-03-14T16:28:47.989Z,6.59
2023-03-14T16:31:20.698Z,6.54
2023-03-14T16:33:47.789Z,6.50
2023-03-14T16:36:15.068Z,6.47
2023-03-14T16:38:44.810Z,6.41
2023-03-14T16:41:12.778Z,6.37
2023-03-14T16:43:40.528Z,6.34
2023-03-14T16:46:11.340Z,6.30
2023-03-14T16:48:38.818Z,6.27
2023-03-14T16:51:06.477Z,6.23
2023-03-14T16:53:33.619Z,6.20
2023-03-14T16:56:01.761Z,6.17
2023-03-14T16:58:30.855Z,6.16
2023-03-14T17:00:58.571Z,6.16
2023-03-14T17:03:27.248Z,6.15
2023-03-14T17:05:54.280Z,6.14
2023-03-14T17:08:21.586Z,6.13
2023-03-14T17:10:49.010Z,6.11
2023-03-14T17:13:16.101Z,6.08
2023-03-14T17:15:46.943Z,6.06
2023-03-14T17:18:14.388Z,6.03
2023-03-14T17:20:46.754Z,6.02
2023-03-14T17:23:13.844Z,6.00
2023-03-14T17:25:41.077Z,5.99
2023-03-14T17:28:09.797Z,5.97
2023-03-14T17:30:38.227Z,5.97
2023-03-14T17:33:05.500Z,5.96
2023-03-14T17:35:32.934Z,5.95
2023-03-14T17:38:00.274Z,5.96
2023-03-14T17:40:28.572Z,5.95
2023-03-14T17:42:55.934Z,5.95
2023-03-14T17:45:24.280Z,5.96
2023-03-14T17:47:51.534Z,5.97
2023-03-14T17:50:18.632Z,5.97
2023-03-14T17:52:45.593Z,5.98
2023-03-14T17:55:12.547Z,5.99
2023-03-14T17:57:45.712Z,6.01
2023-03-14T18:00:14.597Z,6.02
2023-03-14T18:02:42.955Z,6.04
2023-03-14T18:05:10.163Z,6.06
2023-03-14T18:07:38.236Z,6.07
2023-03-14T18:10:09.422Z,6.08
2023-03-14T18:12:38.902Z,6.10
2023-03-14T18:15:06.352Z,6.09
2023-03-14T18:17:36.032Z,6.10
2023-03-14T18:20:06.544Z,6.10
2023-03-14T18:22:34.788Z,6.10
2023-03-14T18:25:03.361Z,6.10
2023-03-14T18:27:30.678Z,6.10
2023-03-14T18:30:01.546Z,6.09
2023-03-14T18:32:29.492Z,6.09
2023-03-14T18:34:56.447Z,6.10
2023-03-14T18:37:23.359Z,6.10
2023-03-14T18:39:50.236Z,6.10
2023-03-14T18:42:21.043Z,6.09
2023-03-14T18:44:48.088Z,6.08
2023-03-14T18:47:15.139Z,6.06
2023-03-14T18:49:46.282Z,6.04
2023-03-14T18:52:13.845Z,6.02
2023-03-14T18:54:45.483Z,6.01
2023-03-14T18:57:12.447Z,5.99
2023-03-14T18:59:39.443Z,5.99
2023-03-14T19:02:07.320Z,5.99
2023-03-14T19:04:34.331Z,6.00
2023-03-14T19:07:03.087Z,6.01
2023-03-14T19:09:30.507Z,6.03
2023-03-14T19:11:57.423Z,6.04
2023-03-14T19:14:26.204Z,6.04
2023-03-14T19:16:54.271Z,6.04
2023-03-14T19:19:21.448Z,6.03
2023-03-14T19:21:49.108Z,6.03
2023-03-14T19:24:19.231Z,6.03
2023-03-14T19:26:46.458Z,6.03
2023-03-14T19:29:14.429Z,6.03
2023-03-14T19:31:41.648Z,6.03
2023-03-14T19:34:08.713Z,6.04
2023-03-14T19:36:37.781Z,6.04
2023-03-14T19:39:06.468Z,6.02
2023-03-14T19:41:34.714Z,6.02
2023-03-14T19:44:01.709Z,6.01
2023-03-14T19:46:32.580Z,6.00
2023-03-14T19:49:00.255Z,5.98
2023-03-14T19:51:32.332Z,5.97
2023-03-14T19:54:02.871Z,5.97
2023-03-14T19:56:32.696Z,5.96
2023-03-14T19:59:04.375Z,5.95
2023-03-14T20:01:32.092Z,5.94
2023-03-14T20:04:03.874Z,5.92
2023-03-14T20:06:31.898Z,5.91
2023-03-14T20:09:01.694Z,5.90
2023-03-14T20:11:28.833Z,5.89
2023-03-14T20:13:55.840Z,5.88
2023-03-14T20:16:22.753Z,5.86
2023-03-14T20:18:53.308Z,5.84
2023-03-14T20:21:20.643Z,5.80
2023-03-14T20:23:51.569Z,5.76
2023-03-14T20:26:19.033Z,5.71
2023-03-14T20:28:46.808Z,5.66
2023-03-14T20:31:16.850Z,5.60
2023-03-14T20:33:43.890Z,5.52
2023-03-14T20:36:13.085Z,5.44
2023-03-14T20:38:40.146Z,5.36
2023-03-14T20:41:07.627Z,5.28
2023-03-14T20:43:36.264Z,5.22
2023-03-14T20:46:04.370Z,5.16
2023-03-14T20:48:34.801Z,5.09
2023-03-14T20:51:02.330Z,5.02
2023-03-14T20:53:29.389Z,4.95
2023-03-14T20:55:57.469Z,4.90
2023-03-14T20:58:24.983Z,4.85
2023-03-14T21:00:57.251Z,4.79
2023-03-14T21:03:26.485Z,4.73
2023-03-14T21:05:54.298Z,4.68
2023-03-14T21:08:23.600Z,4.64
2023-03-14T21:10:52.249Z,4.61
2023-03-14T21:13:19.528Z,4.60
2023-03-14T21:15:48.024Z,4.58
2023-03-14T21:18:15.730Z,4.55
2023-03-14T21:20:48.017Z,4.53
2023-03-14T21:23:17.905Z,4.51
2023-03-14T21:25:46.397Z,4.49
2023-03-14T21:28:13.714Z,4.45
2023-03-14T21:30:41.289Z,4.42
2023-03-14T21:33:08.498Z,4.39
2023-03-14T21:35:37.788Z,4.36
2023-03-14T21:38:05.146Z,4.33
2023-03-14T21:40:32.634Z,4.30
2023-03-14T21:43:01.023Z,4.27
2023-03-14T21:45:28.344Z,4.25
2023-03-14T21:47:57.080Z,4.24
2023-03-14T21:50:26.174Z,4.24
2023-03-14T21:52:56.185Z,4.24
2023-03-14T21:55:24.830Z,4.25
2023-03-14T21:57:53.457Z,4.27
2023-03-14T22:00:21.416Z,4.29
2023-03-14T22:03:10.983Z,4.33
2023-03-14T22:05:46.756Z,4.36
2023-03-14T22:08:15.787Z,4.39
2023-03-14T22:10:50.652Z,4.40
2023-03-14T22:13:20.712Z,4.41
2023-03-14T22:15:49.216Z,4.42
2023-03-14T22:18:17.878Z,4.42
2023-03-14T22:20:45.464Z,4.41
2023-03-14T22:23:13.239Z,4.40
2023-03-14T22:25:42.857Z,4.39
2023-03-14T22:28:10.509Z,4.37
2023-03-14T22:30:37.573Z,4.36
2023-03-14T22:33:05.437Z,4.35
2023-03-14T22:35:32.995Z,4.35
2023-03-14T22:38:02.104Z,4.36
2023-03-14T22:40:29.604Z,4.36
2023-03-14T22:42:56.688Z,4.36
2023-03-14T22:45:23.885Z,4.36
2023-03-14T22:47:51.304Z,4.37
2023-03-14T22:50:18.351Z,4.36
2023-03-14T22:52:45.291Z,4.36
2023-03-14T22:55:12.494Z,4.35
2023-03-14T22:57:40.726Z,4.33
2023-03-14T23:00:12.544Z,4.32
2023-03-14T23:02:40.422Z,4.31
2023-03-14T23:05:07.924Z,4.29
2023-03-14T23:07:35.056Z,4.27
2023-03-14T23:10:03.450Z,4.26
2023-03-14T23:12:30.829Z,4.24
2023-03-14T23:14:57.721Z,4.22
2023-03-14T23:17:24.996Z,4.21
2023-03-14T23:19:53.536Z,4.22
2023-03-14T23:22:27.546Z,4.23
2023-03-14T23:24:54.944Z,4.24
2023-03-14T23:27:21.825Z,4.27
2023-03-14T23:29:48.853Z,4.30
2023-03-14T23:32:16.043Z,4.32
2023-03-14T23:34:43.585Z,4.35
2023-03-14T23:37:14.630Z,4.38
2023-03-14T23:39:45.382Z,4.41
2023-03-14T23:42:13.002Z,4.43
2023-03-14T23:44:40.252Z,4.44
2023-03-14T23:47:08.321Z,4.44
2023-03-14T23:49:35.592Z,4.43
2023-03-14T23:52:03.509Z,4.41
2023-03-14T23:54:31.331Z,4.37
2023-03-14T23:56:58.405Z,4.35
2023-03-14T23:59:25.423Z,4.32
